Time;durP1;ratioP1;P1;durP2;ratioP2;P2;SDS_P1;SDS_P2;PMS_P1;PMS_P2;Temp;Humidity;BMP_temperature;BMP_pressure;BME280_temperature;BME280_humidity;BME280_pressure;Samples;Min_cycle;Max_cycle;Signal;HPM_P1;HPM_P2
2024/03/05 00:02:14;;;;;;;0.30;0.20;;;9.50;99.90;;;;;;5083187;28;20553;-77
2024/03/05 00:04:39;;;;;;;0.30;0.20;;;9.50;99.90;;;;;;5067252;28;20758;-77
2024/03/05 00:07:07;;;;;;;0.30;0.20;;;9.50;99.90;;;;;;5067392;28;20397;-75
2024/03/05 00:09:33;;;;;;;0.30;0.20;;;9.50;99.90;;;;;;5067815;28;20942;-74
2024/03/05 00:11:58;;;;;;;0.30;0.20;;;9.40;99.90;;;;;;5067974;28;20314;-74
2024/03/05 00:14:24;;;;;;;1.27;1.17;;;9.40;99.90;;;;;;5067845;28;20308;-75
2024/03/05 00:16:50;;;;;;;0.30;0.30;;;9.40;99.90;;;;;;5083348;28;20589;-73
2024/03/05 00:19:16;;;;;;;0.30;0.20;;;9.40;99.90;;;;;;5083233;28;20197;-74
2024/03/05 00:21:42;;;;;;;0.90;0.90;;;9.30;99.90;;;;;;5083341;28;20177;-74
2024/03/05 00:24:08;;;;;;;0.30;0.20;;;9.30;99.90;;;;;;5082967;28;20205;-75
2024/03/05 00:26:34;;;;;;;0.30;0.20;;;9.30;99.90;;;;;;5067456;28;20654;-74
2024/03/05 00:29:02;;;;;;;0.73;0.73;;;9.30;99.90;;;;;;5067543;28;20268;-74
2024/03/05 00:31:28;;;;;;;1.88;1.83;;;9.30;99.90;;;;;;5067536;28;20227;-76
2024/03/05 00:33:55;;;;;;;0.30;0.30;;;9.30;99.90;;;;;;5067821;28;20770;-76
2024/03/05 00:36:20;;;;;;;1.05;1.05;;;9.20;99.90;;;;;;5065810;28;20426;-77
2024/03/05 00:38:46;;;;;;;0.30;0.30;;;9.20;99.90;;;;;;5082919;28;20225;-77
2024/03/05 00:41:13;;;;;;;0.98;0.95;;;9.30;99.90;;;;;;5082727;28;20216;-76
2024/03/05 00:43:39;;;;;;;0.75;0.75;;;9.30;99.90;;;;;;5082716;28;20818;-76
2024/03/05 00:46:05;;;;;;;5.40;5.07;;;9.30;99.90;;;;;;5082808;28;20205;-75
2024/03/05 00:48:31;;;;;;;0.30;0.20;;;9.30;99.90;;;;;;5067451;28;20196;-76
2024/03/05 00:50:58;;;;;;;0.30;0.20;;;9.30;99.90;;;;;;5082904;28;20181;-78
2024/03/05 00:53:23;;;;;;;0.43;0.43;;;9.30;99.90;;;;;;5082128;28;20757;-75
2024/03/05 00:55:49;;;;;;;0.30;0.20;;;9.30;99.90;;;;;;5082930;28;20414;-75
2024/03/05 00:58:15;;;;;;;0.83;0.83;;;9.30;99.90;;;;;;5081884;28;20274;-74
2024/03/05 01:00:42;;;;;;;0.30;0.20;;;9.30;99.90;;;;;;5067276;28;20169;-75
2024/03/05 01:03:10;;;;;;;0.30;0.20;;;9.30;99.90;;;;;;5066422;28;20432;-74
2024/03/05 01:05:36;;;;;;;0.30;0.20;;;9.30;99.90;;;;;;5081498;28;20689;-74
2024/03/05 01:08:02;;;;;;;0.30;0.20;;;9.30;99.90;;;;;;5082343;28;20535;-74
2024/03/05 01:10:28;;;;;;;0.30;0.20;;;9.20;99.90;;;;;;5082532;28;20269;-75
2024/03/05 01:12:56;;;;;;;15.30;14.73;;;9.20;99.90;;;;;;5066580;28;20324;-75
2024/03/05 01:15:22;;;;;;;0.30;0.20;;;9.20;99.90;;;;;;5065177;28;20566;-75
2024/03/05 01:17:48;;;;;;;1.30;1.30;;;9.20;99.90;;;;;;5081733;28;20252;-74
2024/03/05 01:20:18;;;;;;;0.30;0.20;;;9.20;99.90;;;;;;5066622;28;20633;-75
2024/03/05 01:22:44;;;;;;;1.10;1.10;;;9.10;99.90;;;;;;5066453;28;20589;-74
2024/03/05 01:25:10;;;;;;;1.67;1.67;;;9.10;99.90;;;;;;5081647;28;20182;-75
2024/03/05 01:27:36;;;;;;;0.40;0.40;;;9.10;99.90;;;;;;5066120;28;20193;-74
2024/03/05 01:30:02;;;;;;;0.30;0.20;;;9.20;99.90;;;;;;5066466;28;20276;-75
2024/03/05 01:32:31;;;;;;;0.30;0.20;;;9.10;99.90;;;;;;5081796;28;20197;-74
2024/03/05 01:34:56;;;;;;;0.30;0.20;;;9.10;99.90;;;;;;5082046;28;20616;-74
2024/03/05 01:37:23;;;;;;;1.13;1.13;;;9.00;99.90;;;;;;5065525;28;20291;-73
2024/03/05 01:39:49;;;;;;;0.30;0.20;;;8.90;99.90;;;;;;5066319;28;20195;-74
2024/03/05 01:42:15;;;;;;;0.30;0.20;;;8.90;99.90;;;;;;5065791;28;20260;-74
2024/03/05 01:44:40;;;;;;;5.47;4.43;;;8.80;99.90;;;;;;5066568;28;20424;-73
2024/03/05 01:47:07;;;;;;;0.90;0.90;;;8.80;99.90;;;;;;5080975;28;20193;-74
2024/03/05 01:49:34;;;;;;;0.30;0.20;;;8.70;99.90;;;;;;5081570;28;20208;-75
2024/03/05 01:52:00;;;;;;;0.30;0.20;;;8.70;99.90;;;;;;5065951;28;20681;-74
2024/03/05 01:54:28;;;;;;;0.38;0.32;;;8.70;99.90;;;;;;5066038;28;20197;-74
2024/03/05 01:56:59;;;;;;;0.30;0.30;;;8.70;99.90;;;;;;5081410;28;20192;-75
2024/03/05 01:59:26;;;;;;;0.30;0.20;;;8.70;99.90;;;;;;5081015;28;20715;-75
2024/03/05 02:01:53;;;;;;;0.82;0.82;;;8.70;99.90;;;;;;5081526;28;20655;-74
2024/03/05 02:04:19;;;;;;;0.30;0.20;;;8.60;99.90;;;;;;5080901;28;20196;-75
2024/03/05 02:06:47;;;;;;;139.43;14.88;;;8.60;99.90;;;;;;5064865;28;20559;-75
2024/03/05 02:09:15;;;;;;;0.30;0.20;;;8.60;99.90;;;;;;5065767;28;20584;-75
2024/03/05 02:11:44;;;;;;;0.30;0.20;;;8.60;99.90;;;;;;5065567;28;20608;-75
2024/03/05 02:14:10;;;;;;;0.30;0.20;;;8.50;99.90;;;;;;5080703;28;20769;-75
2024/03/05 02:16:36;;;;;;;0.30;0.20;;;8.40;99.90;;;;;;5065687;28;20213;-74
2024/03/05 02:19:04;;;;;;;0.30;0.20;;;8.40;99.90;;;;;;5065168;28;20240;-73
2024/03/05 02:21:31;;;;;;;0.30;0.20;;;8.30;99.90;;;;;;5081180;28;20425;-73
2024/03/05 02:23:57;;;;;;;0.43;0.43;;;8.20;99.90;;;;;;5080925;28;20211;-74
2024/03/05 02:26:24;;;;;;;0.30;0.20;;;8.20;99.90;;;;;;5080432;28;20177;-75
2024/03/05 02:28:52;;;;;;;0.30;0.20;;;8.20;99.90;;;;;;5080945;28;20204;-74
2024/03/05 02:31:18;;;;;;;0.60;0.60;;;8.10;99.90;;;;;;5065234;28;20247;-74
2024/03/05 02:33:44;;;;;;;0.30;0.20;;;8.10;99.90;;;;;;5080610;28;20201;-75
2024/03/05 02:36:10;;;;;;;0.30;0.20;;;8.10;99.90;;;;;;5080964;28;20464;-75
2024/03/05 02:38:36;;;;;;;0.30;0.20;;;8.10;99.90;;;;;;5080663;28;20217;-75
2024/03/05 02:41:01;;;;;;;0.30;0.20;;;8.10;99.90;;;;;;5065553;28;20489;-74
2024/03/05 02:43:27;;;;;;;44.53;33.87;;;8.10;99.90;;;;;;5080791;28;20455;-74
2024/03/05 02:45:53;;;;;;;1.40;1.40;;;8.00;99.90;;;;;;5064979;28;20661;-73
2024/03/05 02:48:18;;;;;;;0.30;0.20;;;8.00;99.90;;;;;;5064864;28;20248;-75
2024/03/05 02:50:44;;;;;;;0.30;0.20;;;8.00;99.90;;;;;;5080754;28;20177;-74
2024/03/05 02:53:10;;;;;;;0.30;0.30;;;8.00;99.90;;;;;;5080354;28;20762;-75
2024/03/05 02:55:38;;;;;;;0.30;0.20;;;7.90;99.90;;;;;;5065394;28;20177;-75
2024/03/05 02:58:10;;;;;;;0.30;0.20;;;8.00;99.90;;;;;;5080197;28;20220;-75
2024/03/05 03:00:37;;;;;;;0.30;0.20;;;8.00;99.90;;;;;;5069058;28;20161;-75
2024/03/05 03:03:04;;;;;;;0.30;0.20;;;8.00;99.90;;;;;;5069219;28;20661;-75
2024/03/05 03:05:31;;;;;;;0.30;0.20;;;8.00;99.90;;;;;;5069160;28;20169;-75
2024/03/05 03:07:57;;;;;;;0.30;0.20;;;8.00;99.90;;;;;;5083505;28;20721;-73
2024/03/05 03:10:24;;;;;;;0.30;0.20;;;8.00;99.90;;;;;;5084277;28;20545;-74
2024/03/05 03:12:50;;;;;;;2.10;1.92;;;8.00;99.90;;;;;;5068812;28;20415;-73
2024/03/05 03:15:19;;;;;;;0.30;0.20;;;8.00;99.90;;;;;;5084578;28;20259;-75
2024/03/05 03:17:44;;;;;;;0.30;0.20;;;8.00;99.90;;;;;;5068888;28;20497;-75
2024/03/05 03:20:15;;;;;;;0.30;0.20;;;8.00;99.90;;;;;;5084209;28;20232;-73
2024/03/05 03:22:45;;;;;;;0.30;0.20;;;8.00;99.90;;;;;;5068794;28;20480;-73
2024/03/05 03:25:11;;;;;;;0.30;0.20;;;8.00;99.90;;;;;;5068777;28;20561;-73
2024/03/05 03:27:36;;;;;;;0.30;0.20;;;7.90;99.90;;;;;;5084297;28;20204;-75
2024/03/05 03:30:05;;;;;;;0.30;0.20;;;7.90;99.90;;;;;;5068857;28;20173;-74
2024/03/05 03:32:31;;;;;;;0.30;0.20;;;8.00;99.90;;;;;;5068322;28;20197;-75
2024/03/05 03:34:57;;;;;;;0.30;0.20;;;7.90;99.90;;;;;;5084295;28;20276;-75
2024/03/05 03:37:23;;;;;;;0.30;0.20;;;7.90;99.90;;;;;;5083804;28;20470;-74
2024/03/05 03:39:49;;;;;;;2.07;2.00;;;7.90;99.90;;;;;;5084170;28;20222;-74
2024/03/05 03:42:15;;;;;;;0.30;0.20;;;7.90;99.90;;;;;;5068203;28;20418;-75
2024/03/05 03:44:40;;;;;;;0.30;0.20;;;7.80;99.90;;;;;;5068841;28;20655;-75
2024/03/05 03:47:06;;;;;;;0.30;0.20;;;7.80;99.90;;;;;;5083894;28;20504;-73
2024/03/05 03:49:33;;;;;;;0.30;0.20;;;7.80;99.90;;;;;;5068193;28;20201;-75
2024/03/05 03:51:59;;;;;;;0.30;0.20;;;7.80;99.90;;;;;;5083901;28;20555;-75
2024/03/05 03:54:25;;;;;;;0.30;0.20;;;7.70;99.90;;;;;;5083358;28;20583;-75
2024/03/05 03:56:51;;;;;;;0.30;0.20;;;7.70;99.90;;;;;;5083846;28;20196;-73
2024/03/05 03:59:18;;;;;;;0.30;0.20;;;7.70;99.90;;;;;;5068272;28;20441;-75
2024/03/05 04:01:48;;;;;;;0.30;0.30;;;7.70;99.90;;;;;;5068463;28;20170;-74
2024/03/05 04:04:14;;;;;;;0.30;0.20;;;7.80;99.90;;;;;;5068260;28;20579;-75
2024/03/05 04:06:39;;;;;;;0.40;0.20;;;7.80;99.90;;;;;;5068032;28;20174;-75
2024/03/05 04:09:09;;;;;;;0.30;0.30;;;7.90;99.90;;;;;;5082945;28;20399;-75
2024/03/05 04:11:36;;;;;;;0.30;0.20;;;8.00;99.90;;;;;;5082930;28;20184;-75
2024/03/05 04:14:02;;;;;;;0.30;0.20;;;8.00;99.90;;;;;;5067660;28;20225;-74
2024/03/05 04:16:28;;;;;;;0.30;0.20;;;8.00;99.90;;;;;;5068113;28;20177;-73
2024/03/05 04:18:54;;;;;;;0.30;0.20;;;8.00;99.90;;;;;;5068034;28;20469;-75
2024/03/05 04:21:20;;;;;;;0.30;0.20;;;8.00;99.90;;;;;;5083176;28;20188;-73
2024/03/05 04:23:46;;;;;;;0.30;0.20;;;8.00;99.90;;;;;;5067723;28;20438;-74
2024/03/05 04:26:16;;;;;;;0.30;0.30;;;8.10;99.90;;;;;;5067426;28;20406;-75
2024/03/05 04:28:49;;;;;;;0.30;0.30;;;8.10;99.90;;;;;;5083234;28;20537;-74
2024/03/05 04:31:19;;;;;;;0.30;0.20;;;8.10;99.90;;;;;;5083104;28;20223;-75
2024/03/05 04:33:47;;;;;;;1.70;1.60;;;8.10;99.90;;;;;;5067855;28;20196;-75
2024/03/05 04:36:14;;;;;;;0.30;0.20;;;8.10;99.90;;;;;;5083074;28;20177;-75
2024/03/05 04:38:43;;;;;;;0.30;0.20;;;8.10;99.90;;;;;;5082860;28;20232;-75
2024/03/05 04:41:15;;;;;;;0.30;0.20;;;8.20;99.90;;;;;;5067596;28;20523;-74
2024/03/05 04:43:41;;;;;;;0.30;0.20;;;8.20;99.90;;;;;;5082814;28;20455;-75
2024/03/05 04:46:08;;;;;;;0.30;0.20;;;8.30;99.90;;;;;;5082759;28;20188;-74
2024/03/05 04:48:34;;;;;;;1.35;1.30;;;8.30;99.90;;;;;;5082659;28;20197;-77
2024/03/05 04:51:01;;;;;;;0.30;0.20;;;8.40;99.90;;;;;;5082970;28;20185;-71
2024/03/05 04:53:26;;;;;;;0.30;0.20;;;8.50;99.90;;;;;;5066291;28;20242;-76
2024/03/05 04:55:54;;;;;;;0.30;0.20;;;8.50;99.90;;;;;;5067080;28;20209;-76
2024/03/05 04:58:20;;;;;;;0.30;0.20;;;8.50;99.90;;;;;;5066767;28;20213;-70
2024/03/05 05:00:46;;;;;;;0.33;0.30;;;8.60;99.90;;;;;;5082583;28;20181;-70
2024/03/05 05:03:11;;;;;;;0.30;0.30;;;8.60;99.90;;;;;;5065464;28;20197;-76
2024/03/05 05:05:39;;;;;;;0.30;0.20;;;8.60;99.90;;;;;;5066275;28;20181;-71
2024/03/05 05:08:06;;;;;;;0.30;0.20;;;8.60;99.90;;;;;;5062093;28;20327;-70
2024/03/05 05:10:33;;;;;;;0.30;0.20;;;8.70;99.90;;;;;;5065713;28;20200;-71
2024/03/05 05:12:59;;;;;;;0.30;0.20;;;8.70;99.90;;;;;;5081542;28;20701;-70
2024/03/05 05:15:25;;;;;;;0.30;0.20;;;8.80;99.90;;;;;;5066537;28;20192;-71
2024/03/05 05:17:51;;;;;;;0.30;0.20;;;8.90;99.90;;;;;;5081724;28;20554;-75
2024/03/05 05:20:18;;;;;;;0.30;0.22;;;8.90;99.90;;;;;;5066438;28;20209;-76
2024/03/05 05:22:44;;;;;;;0.30;0.30;;;9.00;99.90;;;;;;5065420;28;20257;-70
2024/03/05 05:25:19;;;;;;;0.30;0.20;;;9.00;99.90;;;;;;5080781;28;20606;-70
2024/03/05 05:27:48;;;;;;;0.30;0.20;;;9.10;99.90;;;;;;5082504;28;20206;-70
2024/03/05 05:30:16;;;;;;;0.30;0.20;;;9.10;99.90;;;;;;5085817;28;20505;-70
2024/03/05 05:32:42;;;;;;;1.45;0.68;;;9.20;99.90;;;;;;5084586;28;20204;-70
2024/03/05 05:35:08;;;;;;;0.30;0.20;;;9.20;99.90;;;;;;5076478;28;20211;-74
2024/03/05 05:37:35;;;;;;;0.30;0.20;;;9.20;99.90;;;;;;5065686;28;20299;-71
2024/03/05 05:40:00;;;;;;;0.30;0.20;;;9.30;99.90;;;;;;5064612;28;20250;-70
2024/03/05 05:42:26;;;;;;;0.30;0.20;;;9.30;99.90;;;;;;5065201;28;20632;-76
2024/03/05 05:44:54;;;;;;;0.30;0.20;;;9.40;99.90;;;;;;5066692;28;20181;-76
2024/03/05 05:47:20;;;;;;;0.30;0.20;;;9.50;99.90;;;;;;5085651;28;20453;-76
2024/03/05 05:49:46;;;;;;;0.50;0.50;;;9.50;99.90;;;;;;5068998;28;20207;-76
2024/03/05 05:52:12;;;;;;;0.30;0.20;;;9.60;99.90;;;;;;5065673;28;20409;-75
2024/03/05 05:54:44;;;;;;;0.40;0.30;;;9.60;99.90;;;;;;5064683;28;20541;-70
2024/03/05 05:57:10;;;;;;;0.43;0.43;;;9.70;99.90;;;;;;5068506;28;20413;-76
2024/03/05 05:59:37;;;;;;;0.30;0.20;;;9.80;99.90;;;;;;5084072;28;20675;-76
2024/03/05 06:02:08;;;;;;;0.30;0.20;;;9.80;99.90;;;;;;5082770;28;20650;-70
2024/03/05 06:04:35;;;;;;;0.50;0.50;;;9.80;99.90;;;;;;5084206;28;20184;-76
2024/03/05 06:07:01;;;;;;;0.30;0.20;;;9.80;99.90;;;;;;5076116;28;20658;-69
2024/03/05 06:09:28;;;;;;;0.40;0.30;;;9.80;99.90;;;;;;5077041;28;20197;-70
2024/03/05 06:11:55;;;;;;;2.35;2.25;;;9.80;99.90;;;;;;5070395;28;20185;-70
2024/03/05 06:14:21;;;;;;;0.30;0.20;;;9.80;99.90;;;;;;5069724;28;20649;-70
2024/03/05 06:16:46;;;;;;;0.30;0.20;;;9.80;99.90;;;;;;5083907;28;20485;-76
2024/03/05 06:19:12;;;;;;;33.87;4.83;;;9.80;99.90;;;;;;5068166;28;20469;-70
2024/03/05 06:21:37;;;;;;;11.03;4.43;;;9.80;99.90;;;;;;5078150;28;20240;-70
2024/03/05 06:24:04;;;;;;;3.47;2.93;;;9.90;99.90;;;;;;5079929;28;20578;-76
2024/03/05 06:26:38;;;;;;;0.88;0.88;;;9.80;99.90;;;;;;5077489;28;20187;-75
2024/03/05 06:29:06;;;;;;;52.22;7.65;;;9.80;99.90;;;;;;5066790;28;20287;-70
2024/03/05 06:31:33;;;;;;;0.50;0.50;;;9.70;99.90;;;;;;5066161;28;20188;-70
2024/03/05 06:33:58;;;;;;;0.30;0.20;;;9.60;99.90;;;;;;5084149;28;20200;-76
2024/03/05 06:36:24;;;;;;;0.30;0.20;;;9.60;99.90;;;;;;5098611;28;20189;-76
2024/03/05 06:38:50;;;;;;;0.30;0.20;;;9.50;99.90;;;;;;5078031;28;20228;-75
2024/03/05 06:41:15;;;;;;;1.17;1.17;;;9.50;99.90;;;;;;5063042;28;20180;-72
2024/03/05 06:43:41;;;;;;;0.83;0.70;;;9.50;99.90;;;;;;5063086;28;20197;-70
2024/03/05 06:46:09;;;;;;;3.15;2.95;;;9.50;99.90;;;;;;5082518;28;20215;-70
2024/03/05 06:48:37;;;;;;;0.30;0.20;;;9.50;99.90;;;;;;5072609;28;20735;-70
2024/03/05 06:51:16;;;;;;;0.30;0.20;;;9.60;99.90;;;;;;5062599;28;20172;-70
2024/03/05 06:56:41;;;;;;;0.30;0.20;;;9.60;99.90;;;;;;5061743;28;20663;-70
2024/03/05 06:59:08;;;;;;;0.32;0.30;;;9.70;99.90;;;;;;5069979;28;20367;-71
2024/03/05 07:01:34;;;;;;;0.30;0.30;;;9.70;99.90;;;;;;5072451;28;20681;-70
2024/03/05 07:04:01;;;;;;;0.30;0.20;;;9.70;99.90;;;;;;5070835;28;20300;-76
2024/03/05 07:06:27;;;;;;;0.30;0.20;;;9.80;99.90;;;;;;5074638;28;20176;-71
2024/03/05 07:08:54;;;;;;;1.00;1.00;;;9.90;99.90;;;;;;5072234;28;20212;-78
2024/03/05 07:11:21;;;;;;;1.55;1.45;;;10.00;99.90;;;;;;5078767;28;20790;-71
2024/03/05 07:13:48;;;;;;;9.23;8.63;;;10.10;99.90;;;;;;5038532;28;1175605;-71
2024/03/05 07:16:15;;;;;;;0.30;0.20;;;10.10;99.90;;;;;;5080796;28;20272;-70
2024/03/05 07:18:43;;;;;;;0.30;0.20;;;10.30;99.90;;;;;;5080012;28;21136;-70
2024/03/05 07:21:11;;;;;;;0.30;0.20;;;10.50;99.90;;;;;;5083270;28;20180;-70
2024/03/05 07:23:39;;;;;;;0.30;0.20;;;10.60;99.90;;;;;;5082703;28;20216;-73
2024/03/05 07:26:05;;;;;;;0.50;0.50;;;10.80;99.90;;;;;;5080967;28;20192;-70
2024/03/05 07:28:31;;;;;;;0.30;0.20;;;10.90;99.90;;;;;;5077154;28;20207;-73
2024/03/05 07:30:56;;;;;;;0.40;0.40;;;11.00;99.90;;;;;;5081082;28;20421;-76
2024/03/05 07:33:22;;;;;;;0.40;0.40;;;11.20;99.90;;;;;;5079770;28;20236;-70
2024/03/05 07:35:48;;;;;;;0.30;0.20;;;11.30;99.90;;;;;;5081669;28;20228;-76
2024/03/05 07:38:15;;;;;;;1.90;1.80;;;11.50;99.90;;;;;;5078672;28;20503;-76
2024/03/05 07:40:41;;;;;;;0.40;0.40;;;11.70;99.90;;;;;;5065826;28;20436;-75
2024/03/05 07:43:08;;;;;;;0.50;0.47;;;11.90;99.90;;;;;;5075023;28;20559;-76
2024/03/05 07:45:34;;;;;;;3.13;2.23;;;12.00;99.90;;;;;;5071834;28;20409;-76
2024/03/05 07:48:00;;;;;;;1.10;1.10;;;12.20;99.90;;;;;;5069076;28;20810;-70
2024/03/05 07:50:28;;;;;;;0.40;0.30;;;12.40;99.90;;;;;;5083801;28;20450;-71
2024/03/05 07:52:57;;;;;;;0.30;0.30;;;12.60;99.90;;;;;;5081000;28;20582;-70
2024/03/05 07:55:23;;;;;;;0.30;0.20;;;12.80;99.90;;;;;;5084984;28;20435;-69
2024/03/05 07:57:49;;;;;;;0.40;0.30;;;13.00;99.90;;;;;;5072499;28;20915;-71
2024/03/05 08:00:17;;;;;;;0.40;0.20;;;13.20;99.90;;;;;;5080244;28;20508;-76
2024/03/05 08:02:47;;;;;;;1.03;0.73;;;13.40;99.90;;;;;;5077719;28;20193;-72
2024/03/05 08:05:18;;;;;;;3.70;3.50;;;13.60;99.90;;;;;;5084112;28;20962;-71
2024/03/05 08:07:56;;;;;;;0.80;0.80;;;13.90;99.90;;;;;;5078601;28;20536;-77
2024/03/05 08:10:23;;;;;;;0.67;0.63;;;14.20;99.90;;;;;;5078258;28;20996;-77
2024/03/05 08:12:53;;;;;;;0.57;0.57;;;14.60;99.90;;;;;;5080714;28;20480;-72
2024/03/05 08:15:19;;;;;;;1.60;1.57;;;15.00;99.90;;;;;;5084986;28;20413;-72
2024/03/05 08:17:47;;;;;;;1.27;1.27;;;15.40;99.90;;;;;;5078486;28;20568;-72
2024/03/05 08:20:20;;;;;;;0.50;0.40;;;15.90;99.90;;;;;;5082991;28;20492;-73
2024/03/05 08:22:46;;;;;;;2.73;2.63;;;16.50;99.90;;;;;;5075757;28;20819;-78
2024/03/05 08:25:17;;;;;;;0.90;0.50;;;17.30;99.90;;;;;;5074214;28;20403;-78
2024/03/05 08:27:50;;;;;;;5.47;2.00;;;18.10;99.90;;;;;;5069722;28;20456;-78
2024/03/05 08:30:21;;;;;;;0.40;0.33;;;19.10;99.90;;;;;;5066404;28;20477;-72
2024/03/05 08:32:48;;;;;;;0.40;0.30;;;20.00;99.90;;;;;;5071764;28;20453;-78
2024/03/05 08:35:15;;;;;;;2.30;1.40;;;21.00;99.90;;;;;;5075495;28;21027;-77
2024/03/05 08:37:43;;;;;;;1.37;1.37;;;21.70;99.90;;;;;;5073270;28;20897;-73
2024/03/05 08:40:13;;;;;;;14.53;6.60;;;22.00;99.90;;;;;;5076291;28;20474;-78
2024/03/05 08:42:43;;;;;;;1.33;1.23;;;22.00;99.50;;;;;;5070774;28;20434;-72
2024/03/05 08:45:14;;;;;;;0.40;0.40;;;21.90;99.10;;;;;;5074902;28;20527;-73
2024/03/05 08:47:46;;;;;;;1.70;1.70;;;22.10;98.80;;;;;;5063958;28;20438;-78
2024/03/05 08:50:12;;;;;;;1.70;1.60;;;22.30;98.30;;;;;;5062444;28;20613;-77
2024/03/05 08:52:38;;;;;;;0.50;0.50;;;22.60;98.30;;;;;;5080318;28;21015;-73
2024/03/05 08:55:08;;;;;;;0.40;0.40;;;23.10;97.40;;;;;;5081307;28;20420;-78
2024/03/05 08:57:37;;;;;;;1.00;0.93;;;23.40;95.90;;;;;;5077579;28;20457;-72
2024/03/05 09:00:07;;;;;;;0.83;0.83;;;23.70;95.20;;;;;;5079232;28;20923;-72
2024/03/05 09:02:34;;;;;;;2.43;2.33;;;24.00;94.80;;;;;;5081057;28;20438;-72
2024/03/05 09:05:00;;;;;;;1.33;1.33;;;24.30;94.00;;;;;;5079854;28;20415;-78
2024/03/05 09:07:25;;;;;;;0.30;0.20;;;24.40;93.00;;;;;;5068056;28;20505;-78
2024/03/05 09:09:51;;;;;;;1.80;1.33;;;24.30;93.00;;;;;;5068106;28;20401;-72
2024/03/05 09:12:18;;;;;;;0.30;0.20;;;24.10;92.70;;;;;;5069796;28;20173;-72
2024/03/05 09:14:44;;;;;;;1.50;1.27;;;23.80;92.80;;;;;;5071664;28;20691;-78
2024/03/05 09:17:10;;;;;;;0.40;0.20;;;23.70;92.90;;;;;;5065703;28;20878;-72
2024/03/05 09:19:37;;;;;;;0.30;0.27;;;23.70;92.70;;;;;;5064079;28;20210;-72
2024/03/05 09:22:05;;;;;;;0.50;0.50;;;23.90;92.60;;;;;;5076195;28;20515;-72
2024/03/05 09:24:32;;;;;;;0.50;0.50;;;24.40;91.80;;;;;;5060127;28;20476;-71
2024/03/05 09:26:59;;;;;;;0.30;0.20;;;24.90;91.70;;;;;;5069954;28;20482;-71
2024/03/05 09:29:25;;;;;;;0.40;0.40;;;25.30;91.10;;;;;;5071813;28;20543;-72
2024/03/05 09:31:51;;;;;;;0.80;0.60;;;25.70;90.60;;;;;;5072120;28;20532;-72
2024/03/05 09:34:16;;;;;;;0.40;0.40;;;26.10;90.60;;;;;;5079063;28;21030;-72
2024/03/05 09:36:42;;;;;;;0.37;0.30;;;26.20;89.40;;;;;;5081029;28;20191;-77
2024/03/05 09:39:09;;;;;;;1.63;1.60;;;26.30;87.80;;;;;;5059933;28;20224;-78
2024/03/05 09:41:41;;;;;;;0.80;0.63;;;26.30;87.70;;;;;;5069026;28;20185;-77
2024/03/05 09:44:08;;;;;;;0.50;0.50;;;26.30;87.20;;;;;;5071604;28;21033;-77
2024/03/05 09:46:38;;;;;;;1.03;1.03;;;26.40;86.40;;;;;;5077645;28;20474;-72
2024/03/05 09:49:11;;;;;;;0.30;0.20;;;26.40;86.20;;;;;;5079172;28;20464;-71
2024/03/05 09:51:39;;;;;;;2.00;1.90;;;26.60;86.00;;;;;;5078550;28;20907;-77
2024/03/05 09:54:12;;;;;;;0.60;0.60;;;26.80;84.60;;;;;;5070965;28;20486;-77
2024/03/05 09:56:42;;;;;;;0.30;0.20;;;26.90;84.30;;;;;;5071370;28;20465;-71
2024/03/05 09:59:12;;;;;;;0.70;0.70;;;26.90;83.30;;;;;;5075262;28;20512;-77
2024/03/05 10:01:41;;;;;;;0.30;0.20;;;26.90;83.50;;;;;;5076165;28;20473;-72
2024/03/05 10:04:12;;;;;;;0.30;0.30;;;27.00;83.10;;;;;;5077236;28;20460;-72
2024/03/05 10:06:38;;;;;;;0.40;0.40;;;26.90;82.80;;;;;;5066005;28;20432;-71
2024/03/05 10:09:05;;;;;;;1.17;1.07;;;26.80;81.50;;;;;;5069169;28;20808;-71
2024/03/05 10:11:31;;;;;;;0.40;0.33;;;26.70;81.00;;;;;;5074226;28;20417;-72
2024/03/05 10:14:07;;;;;;;0.40;0.40;;;26.60;81.50;;;;;;5076053;28;20586;-77
2024/03/05 10:16:34;;;;;;;0.30;0.30;;;26.40;81.10;;;;;;5078091;28;20747;-77
2024/03/05 10:19:12;;;;;;;1.60;1.27;;;26.10;81.10;;;;;;5076544;28;20737;-76
2024/03/05 10:21:38;;;;;;;0.80;0.80;;;25.80;81.10;;;;;;5075058;28;20417;-71
2024/03/05 10:24:05;;;;;;;0.50;0.50;;;25.50;81.80;;;;;;5080177;28;20444;-76
2024/03/05 10:26:32;;;;;;;0.40;0.40;;;25.20;82.90;;;;;;5079544;28;20262;-76
2024/03/05 10:29:00;;;;;;;0.63;0.63;;;25.10;83.50;;;;;;5079034;28;20537;-71
2024/03/05 10:31:29;;;;;;;0.30;0.30;;;24.90;82.20;;;;;;5074999;28;20424;-71
2024/03/05 10:33:58;;;;;;;0.40;0.33;;;24.80;83.60;;;;;;5077812;28;21043;-71
2024/03/05 10:36:28;;;;;;;2.00;1.90;;;24.70;83.10;;;;;;5076554;28;20424;-76
2024/03/05 10:38:55;;;;;;;3.93;0.97;;;24.60;83.20;;;;;;5068981;28;20529;-71
2024/03/05 10:41:27;;;;;;;4.23;3.93;;;24.50;83.00;;;;;;5072600;28;20421;-77
2024/03/05 10:43:53;;;;;;;0.40;0.30;;;24.30;82.80;;;;;;5070364;28;20452;-71
2024/03/05 10:46:23;;;;;;;0.30;0.20;;;24.00;83.30;;;;;;5077525;28;20789;-76
2024/03/05 10:48:55;;;;;;;0.70;0.70;;;23.80;84.10;;;;;;5075063;28;20583;-77
2024/03/05 10:51:23;;;;;;;0.30;0.20;;;23.70;84.20;;;;;;5076436;28;20550;-77
2024/03/05 10:53:50;;;;;;;2.00;1.60;;;23.60;84.50;;;;;;5073087;28;20443;-77
2024/03/05 10:56:17;;;;;;;2.10;2.00;;;23.40;85.20;;;;;;5066423;28;20421;-77
2024/03/05 11:01:16;;;;;;;1.73;1.70;;;23.00;84.80;;;;;;5069788;28;20411;-71
2024/03/05 11:03:44;;;;;;;0.97;0.97;;;22.60;86.50;;;;;;5074176;28;20465;-71
2024/03/05 11:06:13;;;;;;;0.30;0.20;;;22.50;87.30;;;;;;5075801;28;20446;-77
2024/03/05 11:08:41;;;;;;;0.30;0.20;;;22.50;86.50;;;;;;5077190;28;20462;-71
2024/03/05 11:11:14;;;;;;;0.30;0.20;;;22.50;86.30;;;;;;5073781;28;20414;-74
2024/03/05 11:13:42;;;;;;;0.33;0.20;;;22.30;87.50;;;;;;5073827;28;20486;-73
2024/03/05 11:16:08;;;;;;;0.73;0.73;;;22.40;86.90;;;;;;5078652;28;20504;-73
2024/03/05 11:18:35;;;;;;;0.30;0.20;;;22.40;87.20;;;;;;5072127;28;20485;-79
2024/03/05 11:21:13;;;;;;;1.70;1.60;;;22.40;87.30;;;;;;5076571;28;20458;-78
2024/03/05 11:23:43;;;;;;;0.30;0.20;;;22.40;87.20;;;;;;5074303;28;20450;-73
2024/03/05 11:26:22;;;;;;;0.30;0.30;;;22.40;87.30;;;;;;5079405;28;20958;-79
2024/03/05 11:28:48;;;;;;;0.30;0.20;;;22.40;86.60;;;;;;5069825;28;20555;-78
2024/03/05 11:31:18;;;;;;;0.30;0.20;;;22.30;87.10;;;;;;5063019;28;20415;-74
2024/03/05 11:33:57;;;;;;;0.37;0.30;;;22.20;86.50;;;;;;5077681;28;20561;-78
2024/03/05 11:36:23;;;;;;;4.43;2.73;;;22.00;86.60;;;;;;5078459;28;20429;-80
2024/03/05 11:39:06;;;;;;;0.30;0.30;;;21.90;88.80;;;;;;5077843;28;20922;-79
2024/03/05 11:41:37;;;;;;;0.30;0.30;;;22.00;85.60;;;;;;5074630;28;20411;-82
2024/03/05 11:44:03;;;;;;;0.43;0.43;;;22.00;85.80;;;;;;5082722;28;20493;-81
2024/03/05 11:46:45;;;;;;;0.30;0.30;;;22.00;86.30;;;;;;5074196;28;20487;-81
2024/03/05 11:49:11;;;;;;;1.03;1.03;;;22.00;85.50;;;;;;5080129;28;20461;-79
2024/03/05 11:51:40;;;;;;;0.40;0.30;;;22.10;86.00;;;;;;5076433;28;20872;-79
2024/03/05 11:54:08;;;;;;;0.50;0.50;;;22.00;85.30;;;;;;5077485;28;20468;-83
2024/03/05 11:56:40;;;;;;;1.50;1.20;;;21.80;85.90;;;;;;5071416;28;20409;-81
2024/03/05 11:59:06;;;;;;;0.30;0.20;;;21.70;86.20;;;;;;5080823;28;20478;-80
2024/03/05 12:01:32;;;;;;;0.30;0.20;;;21.80;86.70;;;;;;5065606;28;20413;-79
2024/03/05 12:04:07;;;;;;;0.87;0.87;;;21.60;85.30;;;;;;5073740;28;20996;-80
2024/03/05 12:06:38;;;;;;;1.37;1.37;;;21.60;86.10;;;;;;5069358;28;20435;-78
2024/03/05 12:09:20;;;;;;;0.30;0.20;;;21.60;86.10;;;;;;5075376;28;20452;-79
2024/03/05 12:12:16;;;;;;;0.30;0.20;;;21.30;86.10;;;;;;5074839;28;20433;-78
2024/03/05 12:14:52;;;;;;;0.40;0.30;;;21.20;86.50;;;;;;5073536;28;20445;-78
2024/03/05 12:17:19;;;;;;;0.67;0.67;;;21.10;86.60;;;;;;5084049;28;20412;-77
2024/03/05 12:19:54;;;;;;;0.30;0.20;;;20.90;86.80;;;;;;5075534;28;20436;-78
2024/03/05 12:22:20;;;;;;;1.70;1.60;;;20.80;87.50;;;;;;5081074;28;20800;-78
2024/03/05 12:24:46;;;;;;;0.30;0.20;;;20.90;86.90;;;;;;5074122;28;20435;-78
2024/03/05 12:27:13;;;;;;;0.63;0.63;;;21.00;87.50;;;;;;5074918;28;20176;-78
2024/03/05 12:29:40;;;;;;;3.07;2.93;;;21.00;87.70;;;;;;5070553;28;20575;-79
2024/03/05 12:32:11;;;;;;;0.43;0.40;;;21.10;87.70;;;;;;5071443;28;20438;-77
2024/03/05 12:34:38;;;;;;;0.30;0.20;;;21.10;87.90;;;;;;5068181;28;20425;-78
2024/03/05 12:37:10;;;;;;;0.30;0.20;;;21.20;87.90;;;;;;5072070;28;20490;-77
2024/03/05 12:39:36;;;;;;;0.30;0.20;;;21.20;87.90;;;;;;5070163;28;20436;-77
2024/03/05 12:42:07;;;;;;;1.07;1.00;;;21.20;87.80;;;;;;5068785;28;20405;-78
2024/03/05 12:44:33;;;;;;;1.43;1.33;;;21.20;87.80;;;;;;5077977;28;20452;-78
2024/03/05 12:47:21;;;;;;;1.60;1.53;;;21.20;87.90;;;;;;5076528;28;20406;-77
2024/03/05 12:49:48;;;;;;;0.30;0.20;;;21.20;88.50;;;;;;5070580;28;20423;-79
2024/03/05 12:52:21;;;;;;;0.30;0.30;;;21.20;88.40;;;;;;5075328;28;20468;-79
2024/03/05 12:54:58;;;;;;;0.50;0.50;;;21.20;88.00;;;;;;5064703;28;20521;-79
2024/03/05 12:57:29;;;;;;;1.13;1.13;;;21.20;88.00;;;;;;5073727;28;20611;-79
2024/03/05 13:00:00;;;;;;;1.17;0.60;;;21.10;88.00;;;;;;5076157;28;20417;-79
2024/03/05 13:02:28;;;;;;;0.30;0.20;;;21.10;87.60;;;;;;5072745;28;20520;-79